sensor_id;sensor_type;location;lat;lon;timestamp;pressure;altitude;pressure_sealevel;temperature;humidity
75521;BME280;64102;48.628;9.002;2024-01-10T00:02:13;96677.91;;;-8.55;100.00
75521;BME280;64102;48.628;9.002;2024-01-10T00:04:39;96670.44;;;-8.57;100.00
75521;BME280;64102;48.628;9.002;2024-01-10T00:07:04;96675.41;;;-8.55;100.00
75521;BME280;64102;48.628;9.002;2024-01-10T00:09:30;96671.25;;;-8.55;100.00
75521;BME280;64102;48.628;9.002;2024-01-10T00:11:55;96670.41;;;-8.54;100.00
75521;BME280;64102;48.628;9.002;2024-01-10T00:14:21;96672.09;;;-8.54;100.00
75521;BME280;64102;48.628;9.002;2024-01-10T00:16:46;96675.34;;;-8.46;100.00
75521;BME280;64102;48.628;9.002;2024-01-10T00:19:11;96680.28;;;-8.37;100.00
75521;BME280;64102;48.628;9.002;2024-01-10T00:21:37;96675.28;;;-8.36;100.00
75521;BME280;64102;48.628;9.002;2024-01-10T00:24:02;96681.13;;;-8.37;100.00
75521;BME280;64102;48.628;9.002;2024-01-10T00:26:28;96678.63;;;-8.35;100.00
75521;BME280;64102;48.628;9.002;2024-01-10T00:28:53;96672.75;;;-8.31;100.00
75521;BME280;64102;48.628;9.002;2024-01-10T00:31:18;96668.47;;;-8.23;100.00
75521;BME280;64102;48.628;9.002;2024-01-10T00:33:44;96660.94;;;-8.20;100.00
75521;BME280;64102;48.628;9.002;2024-01-10T00:36:09;96663.41;;;-8.12;100.00
75521;BME280;64102;48.628;9.002;2024-01-10T00:38:36;96660.00;;;-8.05;100.00
75521;BME280;64102;48.628;9.002;2024-01-10T00:41:01;96659.13;;;-8.03;100.00
75521;BME280;64102;48.628;9.002;2024-01-10T00:43:26;96661.63;;;-8.00;100.00
75521;BME280;64102;48.628;9.002;2024-01-10T00:45:52;96657.34;;;-7.92;100.00
75521;BME280;64102;48.628;9.002;2024-01-10T00:48:17;96656.44;;;-7.85;100.00
75521;BME280;64102;48.628;9.002;2024-01-10T00:50:43;96653.00;;;-7.73;100.00
75521;BME280;64102;48.628;9.002;2024-01-10T00:53:09;96654.59;;;-7.66;100.00
75521;BME280;64102;48.628;9.002;2024-01-10T00:55:34;96652.91;;;-7.67;100.00
75521;BME280;64102;48.628;9.002;2024-01-10T00:58:00;96652.97;;;-7.72;100.00
75521;BME280;64102;48.628;9.002;2024-01-10T01:00:25;96653.78;;;-7.68;100.00
75521;BME280;64102;48.628;9.002;2024-01-10T01:02:51;96645.41;;;-7.64;100.00
75521;BME280;64102;48.628;9.002;2024-01-10T01:05:17;96650.41;;;-7.64;100.00
75521;BME280;64102;48.628;9.002;2024-01-10T01:07:42;96644.47;;;-7.55;100.00
75521;BME280;64102;48.628;9.002;2024-01-10T01:10:08;96646.09;;;-7.53;100.00
75521;BME280;64102;48.628;9.002;2024-01-10T01:12:36;96646.06;;;-7.50;100.00
75521;BME280;64102;48.628;9.002;2024-01-10T01:15:03;96644.31;;;-7.45;100.00
75521;BME280;64102;48.628;9.002;2024-01-10T01:17:28;96640.91;;;-7.38;100.00
75521;BME280;64102;48.628;9.002;2024-01-10T01:19:54;96647.56;;;-7.35;100.00
75521;BME280;64102;48.628;9.002;2024-01-10T01:22:19;96659.19;;;-7.28;100.00
75521;BME280;64102;48.628;9.002;2024-01-10T01:24:45;96655.72;;;-7.18;100.00
75521;BME280;64102;48.628;9.002;2024-01-10T01:27:10;96658.16;;;-7.10;100.00
75521;BME280;64102;48.628;9.002;2024-01-10T01:29:35;96657.88;;;-6.89;100.00
75521;BME280;64102;48.628;9.002;2024-01-10T01:32:01;96654.38;;;-6.79;100.00
75521;BME280;64102;48.628;9.002;2024-01-10T01:34:26;96658.66;;;-6.87;100.00
75521;BME280;64102;48.628;9.002;2024-01-10T01:36:52;96657.03;;;-6.90;100.00
75521;BME280;64102;48.628;9.002;2024-01-10T01:39:20;96654.53;;;-6.91;100.00
75521;BME280;64102;48.628;9.002;2024-01-10T01:41:45;96656.06;;;-6.81;100.00
75521;BME280;64102;48.628;9.002;2024-01-10T01:44:11;96656.00;;;-6.75;100.00
75521;BME280;64102;48.628;9.002;2024-01-10T01:46:36;96660.97;;;-6.72;100.00
75521;BME280;64102;48.628;9.002;2024-01-10T01:49:02;96665.09;;;-6.69;100.00
75521;BME280;64102;48.628;9.002;2024-01-10T01:51:29;96660.00;;;-6.62;100.00
75521;BME280;64102;48.628;9.002;2024-01-10T01:53:55;96655.00;;;-6.65;100.00
75521;BME280;64102;48.628;9.002;2024-01-10T01:56:21;96654.06;;;-6.56;100.00
75521;BME280;64102;48.628;9.002;2024-01-10T01:58:50;96653.25;;;-6.60;100.00
75521;BME280;64102;48.628;9.002;2024-01-10T02:01:16;96662.41;;;-6.56;100.00
75521;BME280;64102;48.628;9.002;2024-01-10T02:03:41;96655.69;;;-6.52;100.00
75521;BME280;64102;48.628;9.002;2024-01-10T02:06:07;96656.41;;;-6.46;100.00
75521;BME280;64102;48.628;9.002;2024-01-10T02:08:33;96649.75;;;-6.48;100.00
75521;BME280;64102;48.628;9.002;2024-01-10T02:11:00;96653.13;;;-6.49;100.00
75521;BME280;64102;48.628;9.002;2024-01-10T02:13:26;96658.19;;;-6.52;100.00
75521;BME280;64102;48.628;9.002;2024-01-10T02:15:52;96654.06;;;-6.58;100.00
75521;BME280;64102;48.628;9.002;2024-01-10T02:18:17;96648.28;;;-6.63;100.00
75521;BME280;64102;48.628;9.002;2024-01-10T02:20:46;96651.69;;;-6.65;100.00
75521;BME280;64102;48.628;9.002;2024-01-10T02:23:11;96649.13;;;-6.64;100.00
75521;BME280;64102;48.628;9.002;2024-01-10T02:25:40;96640.56;;;-6.51;100.00
75521;BME280;64102;48.628;9.002;2024-01-10T02:28:06;96644.88;;;-6.59;100.00
75521;BME280;64102;48.628;9.002;2024-01-10T02:30:32;96651.56;;;-6.56;100.00
75521;BME280;64102;48.628;9.002;2024-01-10T02:32:58;96646.53;;;-6.56;100.00
75521;BME280;64102;48.628;9.002;2024-01-10T02:35:23;96645.66;;;-6.54;100.00
75521;BME280;64102;48.628;9.002;2024-01-10T02:37:49;96635.63;;;-6.55;100.00
75521;BME280;64102;48.628;9.002;2024-01-10T02:40:17;96638.19;;;-6.57;100.00
75521;BME280;64102;48.628;9.002;2024-01-10T02:42:42;96634.84;;;-6.59;100.00
75521;BME280;64102;48.628;9.002;2024-01-10T02:45:08;96639.88;;;-6.59;100.00
75521;BME280;64102;48.628;9.002;2024-01-10T02:47:33;96636.53;;;-6.59;100.00
75521;BME280;64102;48.628;9.002;2024-01-10T02:49:59;96633.09;;;-6.54;100.00
75521;BME280;64102;48.628;9.002;2024-01-10T02:52:25;96627.19;;;-6.50;100.00
75521;BME280;64102;48.628;9.002;2024-01-10T02:54:50;96633.69;;;-6.38;100.00
75521;BME280;64102;48.628;9.002;2024-01-10T02:57:15;96628.78;;;-6.46;100.00
75521;BME280;64102;48.628;9.002;2024-01-10T02:59:41;96623.88;;;-6.52;100.00
75521;BME280;64102;48.628;9.002;2024-01-10T03:02:06;96624.75;;;-6.54;100.00
75521;BME280;64102;48.628;9.002;2024-01-10T03:04:32;96619.59;;;-6.45;100.00
75521;BME280;64102;48.628;9.002;2024-01-10T03:06:57;96622.09;;;-6.45;100.00
75521;BME280;64102;48.628;9.002;2024-01-10T03:09:23;96619.59;;;-6.47;100.00
75521;BME280;64102;48.628;9.002;2024-01-10T03:11:48;96616.28;;;-6.47;100.00
75521;BME280;64102;48.628;9.002;2024-01-10T03:14:14;96612.75;;;-6.36;100.00
75521;BME280;64102;48.628;9.002;2024-01-10T03:16:39;96616.00;;;-6.30;100.00
75521;BME280;64102;48.628;9.002;2024-01-10T03:19:04;96608.41;;;-6.26;100.00
75521;BME280;64102;48.628;9.002;2024-01-10T03:21:30;96609.22;;;-6.25;100.00
75521;BME280;64102;48.628;9.002;2024-01-10T03:23:56;96613.66;;;-6.40;100.00
75521;BME280;64102;48.628;9.002;2024-01-10T03:26:22;96601.09;;;-6.41;100.00
75521;BME280;64102;48.628;9.002;2024-01-10T03:28:47;96600.50;;;-6.55;100.00
75521;BME280;64102;48.628;9.002;2024-01-10T03:31:13;96606.38;;;-6.56;100.00
75521;BME280;64102;48.628;9.002;2024-01-10T03:33:39;96604.75;;;-6.60;100.00
75521;BME280;64102;48.628;9.002;2024-01-10T03:36:06;96607.25;;;-6.59;100.00
75521;BME280;64102;48.628;9.002;2024-01-10T03:38:31;96605.50;;;-6.54;100.00
75521;BME280;64102;48.628;9.002;2024-01-10T03:40:57;96602.03;;;-6.47;100.00
75521;BME280;64102;48.628;9.002;2024-01-10T03:43:22;96602.94;;;-6.51;100.00
75521;BME280;64102;48.628;9.002;2024-01-10T03:45:47;96603.75;;;-6.50;100.00
75521;BME280;64102;48.628;9.002;2024-01-10T03:48:13;96604.75;;;-6.60;100.00
75521;BME280;64102;48.628;9.002;2024-01-10T03:50:38;96610.84;;;-6.75;100.00
75521;BME280;64102;48.628;9.002;2024-01-10T03:53:03;96622.50;;;-6.72;100.00
75521;BME280;64102;48.628;9.002;2024-01-10T03:55:29;96619.00;;;-6.61;100.00
75521;BME280;64102;48.628;9.002;2024-01-10T03:57:55;96610.59;;;-6.58;100.00
75521;BME280;64102;48.628;9.002;2024-01-10T04:00:21;96621.31;;;-6.49;100.00
75521;BME280;64102;48.628;9.002;2024-01-10T04:02:46;96612.19;;;-6.53;100.00
75521;BME280;64102;48.628;9.002;2024-01-10T04:05:11;96615.53;;;-6.55;100.00
75521;BME280;64102;48.628;9.002;2024-01-10T04:07:40;96616.25;;;-6.46;100.00
75521;BME280;64102;48.628;9.002;2024-01-10T04:10:07;96624.53;;;-6.41;100.00
75521;BME280;64102;48.628;9.002;2024-01-10T04:12:38;96618.75;;;-6.46;100.00
75521;BME280;64102;48.628;9.002;2024-01-10T04:15:03;96612.75;;;-6.36;100.00
75521;BME280;64102;48.628;9.002;2024-01-10T04:17:29;96610.47;;;-6.51;100.00
75521;BME280;64102;48.628;9.002;2024-01-10T04:19:55;96616.38;;;-6.55;100.00
75521;BME280;64102;48.628;9.002;2024-01-10T04:22:20;96616.50;;;-6.62;100.00
75521;BME280;64102;48.628;9.002;2024-01-10T04:24:46;96613.78;;;-6.49;100.00
75521;BME280;64102;48.628;9.002;2024-01-10T04:27:11;96615.59;;;-6.57;100.00
75521;BME280;64102;48.628;9.002;2024-01-10T04:29:37;96614.81;;;-6.62;100.00
75521;BME280;64102;48.628;9.002;2024-01-10T04:32:02;96621.53;;;-6.62;100.00
75521;BME280;64102;48.628;9.002;2024-01-10T04:34:28;96617.34;;;-6.63;100.00
75521;BME280;64102;48.628;9.002;2024-01-10T04:36:54;96622.38;;;-6.65;100.00
75521;BME280;64102;48.628;9.002;2024-01-10T04:39:19;96622.34;;;-6.62;100.00
75521;BME280;64102;48.628;9.002;2024-01-10T04:41:44;96623.06;;;-6.54;100.00
75521;BME280;64102;48.628;9.002;2024-01-10T04:44:10;96619.59;;;-6.45;100.00
75521;BME280;64102;48.628;9.002;2024-01-10T04:46:35;96616.94;;;-6.38;100.00
75521;BME280;64102;48.628;9.002;2024-01-10T04:49:00;96621.19;;;-6.40;100.00
75521;BME280;64102;48.628;9.002;2024-01-10T04:51:26;96621.75;;;-6.24;100.00
75521;BME280;64102;48.628;9.002;2024-01-10T04:53:51;96620.81;;;-6.17;100.00
75521;BME280;64102;48.628;9.002;2024-01-10T04:56:17;96615.72;;;-6.12;100.00
75521;BME280;64102;48.628;9.002;2024-01-10T04:58:42;96621.59;;;-6.15;100.00
75521;BME280;64102;48.628;9.002;2024-01-10T05:01:08;96625.00;;;-6.17;100.00
75521;BME280;64102;48.628;9.002;2024-01-10T05:03:33;96622.78;;;-6.36;100.00
75521;BME280;64102;48.628;9.002;2024-01-10T05:05:58;96618.69;;;-6.43;100.00
75521;BME280;64102;48.628;9.002;2024-01-10T05:08:24;96620.41;;;-6.45;100.00
75521;BME280;64102;48.628;9.002;2024-01-10T05:10:49;96622.16;;;-6.50;100.00
75521;BME280;64102;48.628;9.002;2024-01-10T05:13:15;96619.50;;;-6.39;100.00
75521;BME280;64102;48.628;9.002;2024-01-10T05:15:40;96625.38;;;-6.40;100.00
75521;BME280;64102;48.628;9.002;2024-01-10T05:18:06;96624.75;;;-6.56;100.00
75521;BME280;64102;48.628;9.002;2024-01-10T05:20:31;96621.78;;;-6.81;100.00
75521;BME280;64102;48.628;9.002;2024-01-10T05:22:57;96615.16;;;-6.85;100.00
75521;BME280;64102;48.628;9.002;2024-01-10T05:25:24;96613.66;;;-6.98;100.00
75521;BME280;64102;48.628;9.002;2024-01-10T05:27:49;96621.25;;;-7.04;100.00
75521;BME280;64102;48.628;9.002;2024-01-10T05:30:15;96613.91;;;-7.14;100.00
75521;BME280;64102;48.628;9.002;2024-01-10T05:32:40;96618.25;;;-7.29;100.00
75521;BME280;64102;48.628;9.002;2024-01-10T05:35:06;96614.91;;;-7.28;100.00
75521;BME280;64102;48.628;9.002;2024-01-10T05:37:31;96617.47;;;-7.32;100.00
75521;BME280;64102;48.628;9.002;2024-01-10T05:39:59;96618.28;;;-7.32;100.00
75521;BME280;64102;48.628;9.002;2024-01-10T05:42:25;96616.66;;;-7.36;100.00
75521;BME280;64102;48.628;9.002;2024-01-10T05:44:51;96626.78;;;-7.45;100.00
75521;BME280;64102;48.628;9.002;2024-01-10T05:47:17;96627.88;;;-7.65;100.00
75521;BME280;64102;48.628;9.002;2024-01-10T05:49:42;96626.94;;;-7.57;100.00
75521;BME280;64102;48.628;9.002;2024-01-10T05:52:08;96632.00;;;-7.61;100.00
75521;BME280;64102;48.628;9.002;2024-01-10T05:54:33;96631.31;;;-7.76;100.00
75521;BME280;64102;48.628;9.002;2024-01-10T05:56:58;96623.97;;;-7.92;100.00
75521;BME280;64102;48.628;9.002;2024-01-10T05:59:26;96633.25;;;-8.00;100.00
75521;BME280;64102;48.628;9.002;2024-01-10T06:01:51;96630.84;;;-8.12;100.00
75521;BME280;64102;48.628;9.002;2024-01-10T06:04:17;96636.75;;;-8.21;100.00
75521;BME280;64102;48.628;9.002;2024-01-10T06:06:42;96632.56;;;-8.19;100.00
75521;BME280;64102;48.628;9.002;2024-01-10T06:09:07;96629.31;;;-8.27;100.00
75521;BME280;64102;48.628;9.002;2024-01-10T06:11:40;96627.56;;;-8.21;100.00
75521;BME280;64102;48.628;9.002;2024-01-10T06:14:06;96627.69;;;-8.30;100.00
75521;BME280;64102;48.628;9.002;2024-01-10T06:16:31;96624.44;;;-8.41;100.00
75521;BME280;64102;48.628;9.002;2024-01-10T06:18:56;96621.25;;;-8.59;100.00
75521;BME280;64102;48.628;9.002;2024-01-10T06:21:22;96623.03;;;-8.77;100.00
75521;BME280;64102;48.628;9.002;2024-01-10T06:23:47;96623.91;;;-8.82;100.00
75521;BME280;64102;48.628;9.002;2024-01-10T06:26:12;96623.03;;;-8.78;100.00
75521;BME280;64102;48.628;9.002;2024-01-10T06:28:37;96617.25;;;-8.88;100.00
75521;BME280;64102;48.628;9.002;2024-01-10T06:31:04;96629.72;;;-8.79;100.00
75521;BME280;64102;48.628;9.002;2024-01-10T06:33:29;96634.78;;;-8.86;100.00
75521;BME280;64102;48.628;9.002;2024-01-10T06:35:54;96637.94;;;-8.60;100.00
75521;BME280;64102;48.628;9.002;2024-01-10T06:38:20;96632.19;;;-8.71;100.00
75521;BME280;64102;48.628;9.002;2024-01-10T06:40:47;96638.06;;;-8.81;100.00
75521;BME280;64102;48.628;9.002;2024-01-10T06:43:14;96632.34;;;-8.98;100.00
75521;BME280;64102;48.628;9.002;2024-01-10T06:45:39;96639.94;;;-9.11;100.00
75521;BME280;64102;48.628;9.002;2024-01-10T06:48:05;96634.97;;;-9.20;100.00
75521;BME280;64102;48.628;9.002;2024-01-10T06:50:31;96633.38;;;-9.33;100.00
75521;BME280;64102;48.628;9.002;2024-01-10T06:52:57;96639.22;;;-9.38;100.00
75521;BME280;64102;48.628;9.002;2024-01-10T06:55:22;96641.63;;;-9.23;100.00
75521;BME280;64102;48.628;9.002;2024-01-10T06:57:49;96649.97;;;-9.21;100.00
75521;BME280;64102;48.628;9.002;2024-01-10T07:00:19;96654.03;;;-9.05;100.00
75521;BME280;64102;48.628;9.002;2024-01-10T07:02:45;96651.53;;;-8.97;100.00
75521;BME280;64102;48.628;9.002;2024-01-10T07:05:10;96658.16;;;-8.95;100.00
75521;BME280;64102;48.628;9.002;2024-01-10T07:07:36;96659.00;;;-8.99;100.00
75521;BME280;64102;48.628;9.002;2024-01-10T07:10:02;96662.34;;;-9.01;100.00
75521;BME280;64102;48.628;9.002;2024-01-10T07:12:30;96656.53;;;-9.03;100.00
75521;BME280;64102;48.628;9.002;2024-01-10T07:14:56;96659.84;;;-9.01;100.00
75521;BME280;64102;48.628;9.002;2024-01-10T07:17:21;96662.34;;;-9.00;100.00
75521;BME280;64102;48.628;9.002;2024-01-10T07:19:48;96663.22;;;-9.02;100.00
75521;BME280;64102;48.628;9.002;2024-01-10T07:22:13;96669.00;;;-8.93;100.00
75521;BME280;64102;48.628;9.002;2024-01-10T07:24:38;96674.81;;;-8.91;100.00
75521;BME280;64102;48.628;9.002;2024-01-10T07:27:04;96677.28;;;-8.85;100.00
75521;BME280;64102;48.628;9.002;2024-01-10T07:29:30;96678.13;;;-8.84;100.00
75521;BME280;64102;48.628;9.002;2024-01-10T07:31:56;96672.25;;;-8.83;100.00
75521;BME280;64102;48.628;9.002;2024-01-10T07:34:22;96675.59;;;-8.83;100.00
75521;BME280;64102;48.628;9.002;2024-01-10T07:36:47;96672.19;;;-8.73;100.00
75521;BME280;64102;48.628;9.002;2024-01-10T07:39:12;96678.03;;;-8.72;100.00
75521;BME280;64102;48.628;9.002;2024-01-10T07:41:43;96680.50;;;-8.68;100.00
75521;BME280;64102;48.628;9.002;2024-01-10T07:44:09;96679.66;;;-8.64;100.00
75521;BME280;64102;48.628;9.002;2024-01-10T07:46:35;96676.25;;;-8.56;100.00
75521;BME280;64102;48.628;9.002;2024-01-10T07:49:03;96681.22;;;-8.52;100.00
75521;BME280;64102;48.628;9.002;2024-01-10T07:51:29;96683.69;;;-8.44;100.00
75521;BME280;64102;48.628;9.002;2024-01-10T07:53:56;96690.28;;;-8.33;100.00
75521;BME280;64102;48.628;9.002;2024-01-10T07:56:22;96694.16;;;-8.00;100.00
75521;BME280;64102;48.628;9.002;2024-01-10T07:58:47;96686.81;;;-7.33;100.00
75521;BME280;64102;48.628;9.002;2024-01-10T08:01:14;96689.22;;;-6.58;100.00
75521;BME280;64102;48.628;9.002;2024-01-10T08:03:40;96687.50;;;-6.01;100.00
75521;BME280;64102;48.628;9.002;2024-01-10T08:06:06;96688.97;;;-5.42;100.00
75521;BME280;64102;48.628;9.002;2024-01-10T08:08:31;96693.56;;;-4.77;100.00
75521;BME280;64102;48.628;9.002;2024-01-10T08:10:56;96687.94;;;-4.13;93.94
75521;BME280;64102;48.628;9.002;2024-01-10T08:13:22;96685.44;;;-3.45;88.39
75521;BME280;64102;48.628;9.002;2024-01-10T08:15:47;96693.88;;;-2.85;83.54
75521;BME280;64102;48.628;9.002;2024-01-10T08:18:12;96692.47;;;-2.65;77.84
75521;BME280;64102;48.628;9.002;2024-01-10T08:20:39;96696.94;;;-2.74;74.48
75521;BME280;64102;48.628;9.002;2024-01-10T08:23:04;96690.13;;;-2.72;75.85
75521;BME280;64102;48.628;9.002;2024-01-10T08:25:30;96684.00;;;-2.35;75.09
75521;BME280;64102;48.628;9.002;2024-01-10T08:27:55;96700.84;;;-2.08;73.00
75521;BME280;64102;48.628;9.002;2024-01-10T08:30:25;96697.09;;;-1.19;70.01
75521;BME280;64102;48.628;9.002;2024-01-10T08:32:51;96697.47;;;-1.29;70.43
75521;BME280;64102;48.628;9.002;2024-01-10T08:35:17;96697.88;;;-0.94;67.62
75521;BME280;64102;48.628;9.002;2024-01-10T08:37:43;96700.78;;;-0.58;63.51
75521;BME280;64102;48.628;9.002;2024-01-10T08:40:12;96703.84;;;0.17;60.45
75521;BME280;64102;48.628;9.002;2024-01-10T08:42:40;96700.16;;;0.04;59.06
75521;BME280;64102;48.628;9.002;2024-01-10T08:45:06;96702.78;;;-0.42;61.75
75521;BME280;64102;48.628;9.002;2024-01-10T08:47:33;96703.03;;;-0.27;61.22
75521;BME280;64102;48.628;9.002;2024-01-10T08:50:00;96712.34;;;-0.27;60.93
75521;BME280;64102;48.628;9.002;2024-01-10T08:52:25;96709.34;;;-0.60;61.81
75521;BME280;64102;48.628;9.002;2024-01-10T08:54:51;96705.00;;;-0.57;61.85
75521;BME280;64102;48.628;9.002;2024-01-10T08:57:16;96709.31;;;-0.14;61.35
75521;BME280;64102;48.628;9.002;2024-01-10T08:59:42;96722.38;;;-0.03;59.62
75521;BME280;64102;48.628;9.002;2024-01-10T09:02:07;96716.72;;;0.75;57.47
75521;BME280;64102;48.628;9.002;2024-01-10T09:04:33;96713.28;;;0.14;57.10
75521;BME280;64102;48.628;9.002;2024-01-10T09:06:58;96713.47;;;-0.13;59.01
75521;BME280;64102;48.628;9.002;2024-01-10T09:09:23;96721.59;;;1.00;54.00
75521;BME280;64102;48.628;9.002;2024-01-10T09:11:49;96726.56;;;0.62;55.64
75521;BME280;64102;48.628;9.002;2024-01-10T09:14:14;96728.19;;;1.24;53.83
75521;BME280;64102;48.628;9.002;2024-01-10T09:16:40;96722.56;;;0.97;55.48
75521;BME280;64102;48.628;9.002;2024-01-10T09:19:05;96721.97;;;0.90;55.88
75521;BME280;64102;48.628;9.002;2024-01-10T09:21:30;96725.00;;;1.19;53.22
75521;BME280;64102;48.628;9.002;2024-01-10T09:23:56;96728.56;;;1.54;52.57
75521;BME280;64102;48.628;9.002;2024-01-10T09:26:22;96728.75;;;2.58;50.50
75521;BME280;64102;48.628;9.002;2024-01-10T09:28:47;96727.75;;;2.61;49.09
75521;BME280;64102;48.628;9.002;2024-01-10T09:31:13;96722.66;;;2.78;48.57
75521;BME280;64102;48.628;9.002;2024-01-10T09:33:38;96725.91;;;2.99;48.47
75521;BME280;64102;48.628;9.002;2024-01-10T09:36:04;96725.28;;;2.94;46.50
75521;BME280;64102;48.628;9.002;2024-01-10T09:38:41;96728.38;;;2.49;47.89
75521;BME280;64102;48.628;9.002;2024-01-10T09:41:07;96732.47;;;2.68;48.17
75521;BME280;64102;48.628;9.002;2024-01-10T09:43:33;96733.47;;;2.66;48.20
75521;BME280;64102;48.628;9.002;2024-01-10T09:46:02;96729.47;;;2.95;48.07
75521;BME280;64102;48.628;9.002;2024-01-10T09:48:30;96722.28;;;3.36;45.63
75521;BME280;64102;48.628;9.002;2024-01-10T09:50:56;96727.97;;;3.41;46.74
75521;BME280;64102;48.628;9.002;2024-01-10T09:53:23;96727.19;;;4.03;45.58
75521;BME280;64102;48.628;9.002;2024-01-10T09:55:49;96724.25;;;4.11;45.36
75521;BME280;64102;48.628;9.002;2024-01-10T09:58:15;96722.38;;;3.34;47.15
75521;BME280;64102;48.628;9.002;2024-01-10T10:00:43;96720.41;;;4.33;43.90
75521;BME280;64102;48.628;9.002;2024-01-10T10:03:09;96719.63;;;3.70;46.67
75521;BME280;64102;48.628;9.002;2024-01-10T10:05:38;96725.06;;;3.80;46.15
75521;BME280;64102;48.628;9.002;2024-01-10T10:08:06;96717.75;;;4.50;43.51
75521;BME280;64102;48.628;9.002;2024-01-10T10:10:32;96719.25;;;4.69;43.73
75521;BME280;64102;48.628;9.002;2024-01-10T10:12:57;96715.75;;;4.85;42.44
75521;BME280;64102;48.628;9.002;2024-01-10T10:15:24;96718.97;;;4.14;43.81
75521;BME280;64102;48.628;9.002;2024-01-10T10:17:54;96714.06;;;4.40;45.24
75521;BME280;64102;48.628;9.002;2024-01-10T10:20:32;96711.34;;;5.17;42.58
75521;BME280;64102;48.628;9.002;2024-01-10T10:23:07;96715.81;;;5.56;41.35
75521;BME280;64102;48.628;9.002;2024-01-10T10:25:45;96717.97;;;5.06;42.71
75521;BME280;64102;48.628;9.002;2024-01-10T10:28:11;96721.03;;;4.23;44.37
75521;BME280;64102;48.628;9.002;2024-01-10T10:30:36;96721.03;;;4.53;44.51
75521;BME280;64102;48.628;9.002;2024-01-10T10:33:03;96712.69;;;5.23;42.61
75521;BME280;64102;48.628;9.002;2024-01-10T10:35:28;96720.44;;;5.64;40.46
75521;BME280;64102;48.628;9.002;2024-01-10T10:37:54;96713.00;;;6.16;40.21
75521;BME280;64102;48.628;9.002;2024-01-10T10:40:20;96712.09;;;6.56;38.48
75521;BME280;64102;48.628;9.002;2024-01-10T10:42:54;96708.38;;;7.38;37.45
75521;BME280;64102;48.628;9.002;2024-01-10T10:45:20;96716.66;;;6.39;39.00
75521;BME280;64102;48.628;9.002;2024-01-10T10:50:22;96708.53;;;4.92;40.71
75521;BME280;64102;48.628;9.002;2024-01-10T10:52:49;96702.53;;;5.64;40.11
75521;BME280;64102;48.628;9.002;2024-01-10T10:55:16;96702.72;;;5.61;40.53
75521;BME280;64102;48.628;9.002;2024-01-10T10:57:45;96689.06;;;6.94;38.28
75521;BME280;64102;48.628;9.002;2024-01-10T11:00:18;96698.66;;;6.53;38.37
75521;BME280;64102;48.628;9.002;2024-01-10T11:02:44;96696.66;;;6.44;38.75
75521;BME280;64102;48.628;9.002;2024-01-10T11:05:10;96700.06;;;6.17;39.98
75521;BME280;64102;48.628;9.002;2024-01-10T11:07:37;96692.78;;;6.90;39.77
75521;BME280;64102;48.628;9.002;2024-01-10T11:10:06;96701.16;;;7.68;37.01
75521;BME280;64102;48.628;9.002;2024-01-10T11:13:16;96698.13;;;7.00;37.91
75521;BME280;64102;48.628;9.002;2024-01-10T11:16:04;96702.22;;;7.28;38.22
75521;BME280;64102;48.628;9.002;2024-01-10T11:24:17;96702.00;;;7.05;39.91
75521;BME280;64102;48.628;9.002;2024-01-10T11:26:45;96704.19;;;6.20;41.50
75521;BME280;64102;48.628;9.002;2024-01-10T11:29:10;96700.31;;;5.72;43.20
75521;BME280;64102;48.628;9.002;2024-01-10T11:31:38;96695.97;;;7.06;39.93
75521;BME280;64102;48.628;9.002;2024-01-10T11:34:03;96700.84;;;7.60;39.31
75521;BME280;64102;48.628;9.002;2024-01-10T11:36:29;96694.31;;;6.41;41.53
75521;BME280;64102;48.628;9.002;2024-01-10T11:38:59;96696.03;;;5.87;43.09
75521;BME280;64102;48.628;9.002;2024-01-10T11:41:33;96694.31;;;5.87;42.80
75521;BME280;64102;48.628;9.002;2024-01-10T11:46:49;96691.50;;;6.83;41.20
75521;BME280;64102;48.628;9.002;2024-01-10T11:49:16;96693.34;;;6.56;42.07
75521;BME280;64102;48.628;9.002;2024-01-10T11:51:43;96703.22;;;5.94;42.26
75521;BME280;64102;48.628;9.002;2024-01-10T11:54:09;96694.00;;;6.85;40.93
75521;BME280;64102;48.628;9.002;2024-01-10T11:56:38;96691.84;;;6.12;42.70
75521;BME280;64102;48.628;9.002;2024-01-10T11:59:06;96687.41;;;6.02;43.93
75521;BME280;64102;48.628;9.002;2024-01-10T12:01:37;96684.69;;;6.17;44.15
75521;BME280;64102;48.628;9.002;2024-01-10T12:04:03;96686.69;;;6.79;41.95
75521;BME280;64102;48.628;9.002;2024-01-10T12:06:34;96690.50;;;6.86;41.20
75521;BME280;64102;48.628;9.002;2024-01-10T12:08:59;96685.81;;;7.17;41.54
75521;BME280;64102;48.628;9.002;2024-01-10T12:11:28;96680.91;;;8.00;38.48
75521;BME280;64102;48.628;9.002;2024-01-10T12:13:54;96686.16;;;8.59;38.06
75521;BME280;64102;48.628;9.002;2024-01-10T12:16:19;96683.94;;;7.94;40.24
75521;BME280;64102;48.628;9.002;2024-01-10T12:18:44;96687.16;;;8.08;38.31
75521;BME280;64102;48.628;9.002;2024-01-10T12:21:10;96680.88;;;7.89;39.48
75521;BME280;64102;48.628;9.002;2024-01-10T12:23:37;96686.19;;;7.86;40.86
75521;BME280;64102;48.628;9.002;2024-01-10T12:26:05;96678.38;;;9.51;36.58
75521;BME280;64102;48.628;9.002;2024-01-10T12:28:34;96678.22;;;7.03;41.26
75521;BME280;64102;48.628;9.002;2024-01-10T12:30:59;96687.00;;;6.08;42.96
75521;BME280;64102;48.628;9.002;2024-01-10T12:33:25;96677.84;;;6.70;42.91
75521;BME280;64102;48.628;9.002;2024-01-10T12:36:08;96679.59;;;6.30;43.61
75521;BME280;64102;48.628;9.002;2024-01-10T12:38:35;96675.03;;;7.00;42.12
75521;BME280;64102;48.628;9.002;2024-01-10T12:41:00;96679.50;;;6.71;43.87
75521;BME280;64102;48.628;9.002;2024-01-10T12:43:26;96673.06;;;7.16;43.17
75521;BME280;64102;48.628;9.002;2024-01-10T12:46:05;96669.22;;;7.59;41.95
75521;BME280;64102;48.628;9.002;2024-01-10T12:48:31;96665.63;;;8.22;38.81
75521;BME280;64102;48.628;9.002;2024-01-10T12:50:58;96662.63;;;8.52;39.29
75521;BME280;64102;48.628;9.002;2024-01-10T12:53:32;96666.19;;;7.04;43.12
75521;BME280;64102;48.628;9.002;2024-01-10T12:55:58;96668.16;;;7.26;42.26
75521;BME280;64102;48.628;9.002;2024-01-10T12:58:24;96670.97;;;7.59;42.80
75521;BME280;64102;48.628;9.002;2024-01-10T13:00:49;96666.59;;;7.36;43.01
75521;BME280;64102;48.628;9.002;2024-01-10T13:03:15;96671.31;;;8.62;39.56
75521;BME280;64102;48.628;9.002;2024-01-10T13:05:40;96666.66;;;7.72;41.34